sensor_id;sensor_type;location;lat;lon;timestamp;P1;durP1;ratioP1;P2;durP2;ratioP2
10721;SDS011;5412;59.450;18.124;2024-01-25T00:00:29;0.60;;;0.60;;
10721;SDS011;5412;59.450;18.124;2024-01-25T00:02:54;1.60;;;0.60;;
10721;SDS011;5412;59.450;18.124;2024-01-25T00:05:20;2.07;;;0.60;;
10721;SDS011;5412;59.450;18.124;2024-01-25T00:07:46;0.63;;;0.63;;
10721;SDS011;5412;59.450;18.124;2024-01-25T00:10:13;0.50;;;0.50;;
10721;SDS011;5412;59.450;18.124;2024-01-25T00:12:40;2.50;;;0.60;;
10721;SDS011;5412;59.450;18.124;2024-01-25T00:15:06;0.83;;;0.73;;
10721;SDS011;5412;59.450;18.124;2024-01-25T00:17:31;0.40;;;0.40;;
10721;SDS011;5412;59.450;18.124;2024-01-25T00:19:57;0.60;;;0.60;;
10721;SDS011;5412;59.450;18.124;2024-01-25T00:22:23;0.60;;;0.60;;
10721;SDS011;5412;59.450;18.124;2024-01-25T00:24:48;0.40;;;0.40;;
10721;SDS011;5412;59.450;18.124;2024-01-25T00:27:14;0.73;;;0.70;;
10721;SDS011;5412;59.450;18.124;2024-01-25T00:29:39;0.50;;;0.50;;
10721;SDS011;5412;59.450;18.124;2024-01-25T00:32:05;0.67;;;0.60;;
10721;SDS011;5412;59.450;18.124;2024-01-25T00:34:31;0.60;;;0.60;;
10721;SDS011;5412;59.450;18.124;2024-01-25T00:36:57;0.63;;;0.60;;
10721;SDS011;5412;59.450;18.124;2024-01-25T00:39:23;0.50;;;0.50;;
10721;SDS011;5412;59.450;18.124;2024-01-25T00:41:50;1.50;;;0.77;;
10721;SDS011;5412;59.450;18.124;2024-01-25T00:44:17;0.80;;;0.80;;
10721;SDS011;5412;59.450;18.124;2024-01-25T00:46:43;1.13;;;0.70;;
10721;SDS011;5412;59.450;18.124;2024-01-25T00:49:12;0.80;;;0.80;;
10721;SDS011;5412;59.450;18.124;2024-01-25T00:51:38;0.47;;;0.47;;
10721;SDS011;5412;59.450;18.124;2024-01-25T00:54:11;0.77;;;0.70;;
10721;SDS011;5412;59.450;18.124;2024-01-25T00:56:37;0.60;;;0.60;;
10721;SDS011;5412;59.450;18.124;2024-01-25T00:59:03;0.67;;;0.67;;
10721;SDS011;5412;59.450;18.124;2024-01-25T01:01:29;0.60;;;0.60;;
10721;SDS011;5412;59.450;18.124;2024-01-25T01:03:55;0.60;;;0.60;;
10721;SDS011;5412;59.450;18.124;2024-01-25T01:06:23;2.00;;;0.70;;
10721;SDS011;5412;59.450;18.124;2024-01-25T01:08:49;0.73;;;0.73;;
10721;SDS011;5412;59.450;18.124;2024-01-25T01:11:15;1.67;;;0.70;;
10721;SDS011;5412;59.450;18.124;2024-01-25T01:13:40;0.90;;;0.90;;
10721;SDS011;5412;59.450;18.124;2024-01-25T01:16:06;0.80;;;0.80;;
10721;SDS011;5412;59.450;18.124;2024-01-25T01:18:32;1.47;;;0.60;;
10721;SDS011;5412;59.450;18.124;2024-01-25T01:20:57;0.80;;;0.80;;
10721;SDS011;5412;59.450;18.124;2024-01-25T01:23:23;1.77;;;1.00;;
10721;SDS011;5412;59.450;18.124;2024-01-25T01:25:49;3.33;;;0.80;;
10721;SDS011;5412;59.450;18.124;2024-01-25T01:28:14;1.00;;;0.90;;
10721;SDS011;5412;59.450;18.124;2024-01-25T01:30:40;1.97;;;1.10;;
10721;SDS011;5412;59.450;18.124;2024-01-25T01:33:09;1.80;;;1.03;;
10721;SDS011;5412;59.450;18.124;2024-01-25T01:35:35;0.93;;;0.93;;
10721;SDS011;5412;59.450;18.124;2024-01-25T01:38:01;1.00;;;1.00;;
10721;SDS011;5412;59.450;18.124;2024-01-25T01:40:27;2.37;;;1.03;;
10721;SDS011;5412;59.450;18.124;2024-01-25T01:43:02;0.90;;;0.90;;
10721;SDS011;5412;59.450;18.124;2024-01-25T01:45:28;1.57;;;0.97;;
10721;SDS011;5412;59.450;18.124;2024-01-25T01:47:57;1.07;;;0.97;;
10721;SDS011;5412;59.450;18.124;2024-01-25T01:50:24;2.20;;;1.10;;
10721;SDS011;5412;59.450;18.124;2024-01-25T01:52:50;1.30;;;1.07;;
10721;SDS011;5412;59.450;18.124;2024-01-25T01:55:17;1.10;;;1.00;;
10721;SDS011;5412;59.450;18.124;2024-01-25T01:57:42;1.50;;;1.20;;
10721;SDS011;5412;59.450;18.124;2024-01-25T02:00:09;1.40;;;1.30;;
10721;SDS011;5412;59.450;18.124;2024-01-25T02:02:35;1.30;;;1.10;;
10721;SDS011;5412;59.450;18.124;2024-01-25T02:05:01;1.47;;;1.17;;
10721;SDS011;5412;59.450;18.124;2024-01-25T02:07:27;2.80;;;1.10;;
10721;SDS011;5412;59.450;18.124;2024-01-25T02:09:54;1.30;;;1.00;;
10721;SDS011;5412;59.450;18.124;2024-01-25T02:12:20;1.00;;;0.90;;
10721;SDS011;5412;59.450;18.124;2024-01-25T02:14:45;2.30;;;1.30;;
10721;SDS011;5412;59.450;18.124;2024-01-25T02:17:11;1.87;;;1.30;;
10721;SDS011;5412;59.450;18.124;2024-01-25T02:19:37;1.00;;;0.90;;
10721;SDS011;5412;59.450;18.124;2024-01-25T02:22:04;1.20;;;1.00;;
10721;SDS011;5412;59.450;18.124;2024-01-25T02:24:30;2.73;;;1.13;;
10721;SDS011;5412;59.450;18.124;2024-01-25T02:26:56;1.73;;;1.00;;
10721;SDS011;5412;59.450;18.124;2024-01-25T02:29:21;1.67;;;1.10;;
10721;SDS011;5412;59.450;18.124;2024-01-25T02:31:47;2.07;;;1.57;;
10721;SDS011;5412;59.450;18.124;2024-01-25T02:34:13;3.30;;;0.93;;
10721;SDS011;5412;59.450;18.124;2024-01-25T02:36:38;2.43;;;1.00;;
10721;SDS011;5412;59.450;18.124;2024-01-25T02:39:04;0.87;;;0.80;;
10721;SDS011;5412;59.450;18.124;2024-01-25T02:41:30;0.93;;;0.77;;
10721;SDS011;5412;59.450;18.124;2024-01-25T02:43:57;1.83;;;0.93;;
10721;SDS011;5412;59.450;18.124;2024-01-25T02:46:23;2.07;;;1.03;;
10721;SDS011;5412;59.450;18.124;2024-01-25T02:48:48;0.53;;;0.53;;
10721;SDS011;5412;59.450;18.124;2024-01-25T02:51:14;2.00;;;0.77;;
10721;SDS011;5412;59.450;18.124;2024-01-25T02:53:40;1.70;;;0.80;;
10721;SDS011;5412;59.450;18.124;2024-01-25T02:56:06;0.70;;;0.70;;
10721;SDS011;5412;59.450;18.124;2024-01-25T02:58:32;3.10;;;0.90;;
10721;SDS011;5412;59.450;18.124;2024-01-25T03:00:58;2.00;;;0.80;;
10721;SDS011;5412;59.450;18.124;2024-01-25T03:03:24;2.97;;;1.10;;
10721;SDS011;5412;59.450;18.124;2024-01-25T03:05:52;1.50;;;0.73;;
10721;SDS011;5412;59.450;18.124;2024-01-25T03:08:18;0.83;;;0.73;;
10721;SDS011;5412;59.450;18.124;2024-01-25T03:10:44;1.13;;;0.63;;
10721;SDS011;5412;59.450;18.124;2024-01-25T03:13:14;1.33;;;0.70;;
10721;SDS011;5412;59.450;18.124;2024-01-25T03:15:41;0.83;;;0.57;;
10721;SDS011;5412;59.450;18.124;2024-01-25T03:18:08;1.37;;;0.87;;
10721;SDS011;5412;59.450;18.124;2024-01-25T03:20:33;3.27;;;0.93;;
10721;SDS011;5412;59.450;18.124;2024-01-25T03:22:59;0.70;;;0.67;;
10721;SDS011;5412;59.450;18.124;2024-01-25T03:25:24;1.40;;;0.90;;
10721;SDS011;5412;59.450;18.124;2024-01-25T03:27:50;1.07;;;0.70;;
10721;SDS011;5412;59.450;18.124;2024-01-25T03:30:16;2.10;;;1.13;;
10721;SDS011;5412;59.450;18.124;2024-01-25T03:32:42;1.43;;;0.73;;
10721;SDS011;5412;59.450;18.124;2024-01-25T03:35:07;1.43;;;0.90;;
10721;SDS011;5412;59.450;18.124;2024-01-25T03:37:33;0.80;;;0.80;;
10721;SDS011;5412;59.450;18.124;2024-01-25T03:39:59;0.93;;;0.70;;
10721;SDS011;5412;59.450;18.124;2024-01-25T03:42:24;1.60;;;1.10;;
10721;SDS011;5412;59.450;18.124;2024-01-25T03:44:51;2.57;;;1.03;;
10721;SDS011;5412;59.450;18.124;2024-01-25T03:47:17;1.50;;;1.23;;
10721;SDS011;5412;59.450;18.124;2024-01-25T03:49:42;1.17;;;1.00;;
10721;SDS011;5412;59.450;18.124;2024-01-25T03:52:08;0.90;;;0.90;;
10721;SDS011;5412;59.450;18.124;2024-01-25T03:54:34;1.93;;;1.00;;
10721;SDS011;5412;59.450;18.124;2024-01-25T03:57:00;2.00;;;1.17;;
10721;SDS011;5412;59.450;18.124;2024-01-25T03:59:25;2.23;;;0.93;;
10721;SDS011;5412;59.450;18.124;2024-01-25T04:01:51;1.77;;;1.30;;
10721;SDS011;5412;59.450;18.124;2024-01-25T04:04:17;1.97;;;1.20;;
10721;SDS011;5412;59.450;18.124;2024-01-25T04:06:42;2.23;;;1.20;;
10721;SDS011;5412;59.450;18.124;2024-01-25T04:09:10;1.87;;;1.07;;
10721;SDS011;5412;59.450;18.124;2024-01-25T04:11:37;1.87;;;1.10;;
10721;SDS011;5412;59.450;18.124;2024-01-25T04:14:03;1.53;;;1.10;;
10721;SDS011;5412;59.450;18.124;2024-01-25T04:16:29;3.53;;;1.10;;
10721;SDS011;5412;59.450;18.124;2024-01-25T04:18:55;3.57;;;1.27;;
10721;SDS011;5412;59.450;18.124;2024-01-25T04:21:21;3.47;;;1.17;;
10721;SDS011;5412;59.450;18.124;2024-01-25T04:23:46;2.00;;;1.30;;
10721;SDS011;5412;59.450;18.124;2024-01-25T04:26:12;1.37;;;1.20;;
10721;SDS011;5412;59.450;18.124;2024-01-25T04:28:39;2.03;;;1.00;;
10721;SDS011;5412;59.450;18.124;2024-01-25T04:31:04;1.13;;;1.03;;
10721;SDS011;5412;59.450;18.124;2024-01-25T04:33:30;1.80;;;1.10;;
10721;SDS011;5412;59.450;18.124;2024-01-25T04:35:56;1.50;;;1.00;;
10721;SDS011;5412;59.450;18.124;2024-01-25T04:38:22;2.20;;;1.20;;
10721;SDS011;5412;59.450;18.124;2024-01-25T04:40:47;1.73;;;0.93;;
10721;SDS011;5412;59.450;18.124;2024-01-25T04:43:13;2.03;;;1.30;;
10721;SDS011;5412;59.450;18.124;2024-01-25T04:45:39;2.10;;;1.20;;
10721;SDS011;5412;59.450;18.124;2024-01-25T04:48:05;0.77;;;0.77;;
10721;SDS011;5412;59.450;18.124;2024-01-25T04:50:31;2.70;;;1.30;;
10721;SDS011;5412;59.450;18.124;2024-01-25T04:52:57;1.33;;;0.90;;
10721;SDS011;5412;59.450;18.124;2024-01-25T04:55:23;3.00;;;1.23;;
10721;SDS011;5412;59.450;18.124;2024-01-25T04:57:48;2.30;;;1.10;;
10721;SDS011;5412;59.450;18.124;2024-01-25T05:00:18;2.30;;;1.07;;
10721;SDS011;5412;59.450;18.124;2024-01-25T05:02:47;1.67;;;1.00;;
10721;SDS011;5412;59.450;18.124;2024-01-25T05:05:13;1.93;;;1.10;;
10721;SDS011;5412;59.450;18.124;2024-01-25T05:07:39;1.80;;;1.03;;
10721;SDS011;5412;59.450;18.124;2024-01-25T05:10:05;1.67;;;1.00;;
10721;SDS011;5412;59.450;18.124;2024-01-25T05:12:31;1.63;;;0.93;;
10721;SDS011;5412;59.450;18.124;2024-01-25T05:14:57;1.63;;;1.10;;
10721;SDS011;5412;59.450;18.124;2024-01-25T05:17:23;1.63;;;1.17;;
10721;SDS011;5412;59.450;18.124;2024-01-25T05:19:49;2.03;;;1.20;;
10721;SDS011;5412;59.450;18.124;2024-01-25T05:22:14;2.50;;;1.10;;
10721;SDS011;5412;59.450;18.124;2024-01-25T05:24:40;2.63;;;1.10;;
10721;SDS011;5412;59.450;18.124;2024-01-25T05:27:06;1.20;;;1.10;;
10721;SDS011;5412;59.450;18.124;2024-01-25T05:29:31;2.63;;;1.23;;
10721;SDS011;5412;59.450;18.124;2024-01-25T05:31:57;1.00;;;1.00;;
10721;SDS011;5412;59.450;18.124;2024-01-25T05:34:23;1.80;;;1.30;;
10721;SDS011;5412;59.450;18.124;2024-01-25T05:36:49;1.90;;;1.30;;
10721;SDS011;5412;59.450;18.124;2024-01-25T05:39:15;2.53;;;1.50;;
10721;SDS011;5412;59.450;18.124;2024-01-25T05:41:42;2.03;;;1.30;;
10721;SDS011;5412;59.450;18.124;2024-01-25T05:44:10;2.33;;;1.30;;
10721;SDS011;5412;59.450;18.124;2024-01-25T05:46:36;1.90;;;1.40;;
10721;SDS011;5412;59.450;18.124;2024-01-25T05:49:02;1.93;;;1.30;;
10721;SDS011;5412;59.450;18.124;2024-01-25T05:51:28;1.80;;;1.47;;
10721;SDS011;5412;59.450;18.124;2024-01-25T05:53:53;2.50;;;1.37;;
10721;SDS011;5412;59.450;18.124;2024-01-25T05:56:19;2.17;;;1.50;;
10721;SDS011;5412;59.450;18.124;2024-01-25T05:58:45;1.63;;;1.33;;
10721;SDS011;5412;59.450;18.124;2024-01-25T06:01:10;2.00;;;1.30;;
10721;SDS011;5412;59.450;18.124;2024-01-25T06:03:36;3.50;;;1.60;;
10721;SDS011;5412;59.450;18.124;2024-01-25T06:06:02;3.00;;;1.90;;
10721;SDS011;5412;59.450;18.124;2024-01-25T06:08:27;1.93;;;1.33;;
10721;SDS011;5412;59.450;18.124;2024-01-25T06:10:53;1.50;;;1.40;;
10721;SDS011;5412;59.450;18.124;2024-01-25T06:13:19;1.43;;;1.20;;
10721;SDS011;5412;59.450;18.124;2024-01-25T06:15:44;1.60;;;1.20;;
10721;SDS011;5412;59.450;18.124;2024-01-25T06:18:10;2.73;;;1.17;;
10721;SDS011;5412;59.450;18.124;2024-01-25T06:20:36;2.27;;;1.53;;
10721;SDS011;5412;59.450;18.124;2024-01-25T06:23:02;1.43;;;1.23;;
10721;SDS011;5412;59.450;18.124;2024-01-25T06:25:30;2.27;;;1.50;;
10721;SDS011;5412;59.450;18.124;2024-01-25T06:27:59;1.13;;;1.00;;
10721;SDS011;5412;59.450;18.124;2024-01-25T06:30:25;1.40;;;1.10;;
10721;SDS011;5412;59.450;18.124;2024-01-25T06:32:51;2.07;;;1.20;;
10721;SDS011;5412;59.450;18.124;2024-01-25T06:35:16;2.07;;;1.00;;
10721;SDS011;5412;59.450;18.124;2024-01-25T06:37:42;1.20;;;1.10;;
10721;SDS011;5412;59.450;18.124;2024-01-25T06:40:08;2.37;;;1.10;;
10721;SDS011;5412;59.450;18.124;2024-01-25T06:42:34;2.60;;;1.20;;
10721;SDS011;5412;59.450;18.124;2024-01-25T06:44:59;2.70;;;1.20;;
10721;SDS011;5412;59.450;18.124;2024-01-25T06:47:25;1.87;;;1.07;;
10721;SDS011;5412;59.450;18.124;2024-01-25T06:49:51;1.87;;;1.20;;
10721;SDS011;5412;59.450;18.124;2024-01-25T06:52:17;2.53;;;1.30;;
10721;SDS011;5412;59.450;18.124;2024-01-25T06:54:43;1.57;;;1.10;;
10721;SDS011;5412;59.450;18.124;2024-01-25T06:57:09;0.97;;;0.90;;
10721;SDS011;5412;59.450;18.124;2024-01-25T06:59:35;1.37;;;1.10;;
10721;SDS011;5412;59.450;18.124;2024-01-25T07:02:01;0.90;;;0.90;;
10721;SDS011;5412;59.450;18.124;2024-01-25T07:04:28;1.40;;;1.20;;
10721;SDS011;5412;59.450;18.124;2024-01-25T07:06:54;1.40;;;1.20;;
10721;SDS011;5412;59.450;18.124;2024-01-25T07:09:20;1.70;;;1.00;;
10721;SDS011;5412;59.450;18.124;2024-01-25T07:11:46;0.90;;;0.90;;
10721;SDS011;5412;59.450;18.124;2024-01-25T07:14:11;1.27;;;1.17;;
10721;SDS011;5412;59.450;18.124;2024-01-25T07:16:37;1.03;;;0.70;;
10721;SDS011;5412;59.450;18.124;2024-01-25T07:19:03;2.23;;;0.93;;
10721;SDS011;5412;59.450;18.124;2024-01-25T07:21:29;1.10;;;0.90;;
10721;SDS011;5412;59.450;18.124;2024-01-25T07:23:59;2.07;;;0.90;;
10721;SDS011;5412;59.450;18.124;2024-01-25T07:26:26;1.73;;;0.80;;
10721;SDS011;5412;59.450;18.124;2024-01-25T07:28:51;1.23;;;0.77;;
10721;SDS011;5412;59.450;18.124;2024-01-25T07:31:23;1.30;;;0.90;;
10721;SDS011;5412;59.450;18.124;2024-01-25T07:33:52;1.53;;;0.67;;
10721;SDS011;5412;59.450;18.124;2024-01-25T07:36:18;1.57;;;0.80;;
10721;SDS011;5412;59.450;18.124;2024-01-25T07:38:44;0.90;;;0.83;;
10721;SDS011;5412;59.450;18.124;2024-01-25T07:41:12;3.20;;;0.83;;
10721;SDS011;5412;59.450;18.124;2024-01-25T07:43:38;1.60;;;0.80;;
10721;SDS011;5412;59.450;18.124;2024-01-25T07:46:03;0.57;;;0.53;;
10721;SDS011;5412;59.450;18.124;2024-01-25T07:48:29;0.83;;;0.70;;
10721;SDS011;5412;59.450;18.124;2024-01-25T07:50:56;0.67;;;0.50;;
10721;SDS011;5412;59.450;18.124;2024-01-25T07:53:21;1.00;;;0.67;;
10721;SDS011;5412;59.450;18.124;2024-01-25T07:55:47;0.93;;;0.63;;
10721;SDS011;5412;59.450;18.124;2024-01-25T07:58:16;0.80;;;0.60;;
10721;SDS011;5412;59.450;18.124;2024-01-25T08:00:42;1.23;;;0.77;;
10721;SDS011;5412;59.450;18.124;2024-01-25T08:03:08;0.70;;;0.70;;
10721;SDS011;5412;59.450;18.124;2024-01-25T08:05:35;2.20;;;0.73;;
10721;SDS011;5412;59.450;18.124;2024-01-25T08:08:00;0.83;;;0.50;;
10721;SDS011;5412;59.450;18.124;2024-01-25T08:10:26;0.83;;;0.50;;
10721;SDS011;5412;59.450;18.124;2024-01-25T08:12:52;1.00;;;0.73;;
10721;SDS011;5412;59.450;18.124;2024-01-25T08:15:18;0.70;;;0.70;;
10721;SDS011;5412;59.450;18.124;2024-01-25T08:17:44;1.10;;;0.83;;
10721;SDS011;5412;59.450;18.124;2024-01-25T08:20:10;0.50;;;0.50;;
10721;SDS011;5412;59.450;18.124;2024-01-25T08:22:38;5.73;;;0.70;;
10721;SDS011;5412;59.450;18.124;2024-01-25T08:25:05;0.87;;;0.80;;
10721;SDS011;5412;59.450;18.124;2024-01-25T08:27:31;1.63;;;1.23;;
10721;SDS011;5412;59.450;18.124;2024-01-25T08:29:57;1.13;;;0.80;;
10721;SDS011;5412;59.450;18.124;2024-01-25T08:32:22;1.23;;;1.07;;
10721;SDS011;5412;59.450;18.124;2024-01-25T08:34:48;1.50;;;0.80;;
10721;SDS011;5412;59.450;18.124;2024-01-25T08:37:14;0.67;;;0.60;;
10721;SDS011;5412;59.450;18.124;2024-01-25T08:39:39;1.00;;;0.70;;
10721;SDS011;5412;59.450;18.124;2024-01-25T08:42:05;2.83;;;0.80;;
10721;SDS011;5412;59.450;18.124;2024-01-25T08:44:31;1.13;;;0.80;;
10721;SDS011;5412;59.450;18.124;2024-01-25T08:46:57;2.33;;;0.80;;
10721;SDS011;5412;59.450;18.124;2024-01-25T08:49:23;0.70;;;0.70;;
10721;SDS011;5412;59.450;18.124;2024-01-25T08:51:49;1.67;;;0.93;;
10721;SDS011;5412;59.450;18.124;2024-01-25T08:54:15;1.10;;;0.60;;
10721;SDS011;5412;59.450;18.124;2024-01-25T08:56:41;0.83;;;0.70;;
10721;SDS011;5412;59.450;18.124;2024-01-25T08:59:06;1.47;;;1.00;;
10721;SDS011;5412;59.450;18.124;2024-01-25T09:01:32;1.43;;;0.80;;
10721;SDS011;5412;59.450;18.124;2024-01-25T09:03:58;1.27;;;0.97;;
10721;SDS011;5412;59.450;18.124;2024-01-25T09:06:28;2.20;;;1.20;;
10721;SDS011;5412;59.450;18.124;2024-01-25T09:08:54;1.17;;;1.10;;
10721;SDS011;5412;59.450;18.124;2024-01-25T09:11:20;2.03;;;1.10;;
10721;SDS011;5412;59.450;18.124;2024-01-25T09:13:46;2.37;;;1.20;;
10721;SDS011;5412;59.450;18.124;2024-01-25T09:16:12;2.20;;;1.03;;
10721;SDS011;5412;59.450;18.124;2024-01-25T09:18:38;2.13;;;1.10;;
10721;SDS011;5412;59.450;18.124;2024-01-25T09:21:04;3.47;;;1.10;;
10721;SDS011;5412;59.450;18.124;2024-01-25T09:23:30;1.90;;;1.43;;
10721;SDS011;5412;59.450;18.124;2024-01-25T09:25:55;2.73;;;1.07;;
10721;SDS011;5412;59.450;18.124;2024-01-25T09:28:21;1.57;;;1.10;;
10721;SDS011;5412;59.450;18.124;2024-01-25T09:30:47;3.00;;;1.40;;
10721;SDS011;5412;59.450;18.124;2024-01-25T09:33:13;1.27;;;1.17;;
10721;SDS011;5412;59.450;18.124;2024-01-25T09:35:39;1.83;;;1.43;;
10721;SDS011;5412;59.450;18.124;2024-01-25T09:38:05;1.97;;;1.33;;
10721;SDS011;5412;59.450;18.124;2024-01-25T09:40:30;1.93;;;1.50;;
10721;SDS011;5412;59.450;18.124;2024-01-25T09:42:58;1.80;;;1.20;;
10721;SDS011;5412;59.450;18.124;2024-01-25T09:45:24;2.67;;;1.33;;
10721;SDS011;5412;59.450;18.124;2024-01-25T09:47:50;2.53;;;1.57;;
10721;SDS011;5412;59.450;18.124;2024-01-25T09:50:16;2.10;;;1.90;;
10721;SDS011;5412;59.450;18.124;2024-01-25T09:52:44;3.10;;;1.87;;
10721;SDS011;5412;59.450;18.124;2024-01-25T09:55:15;4.60;;;1.73;;
10721;SDS011;5412;59.450;18.124;2024-01-25T09:57:45;4.10;;;1.93;;
10721;SDS011;5412;59.450;18.124;2024-01-25T10:00:14;3.73;;;2.27;;
10721;SDS011;5412;59.450;18.124;2024-01-25T10:02:40;3.20;;;2.10;;
10721;SDS011;5412;59.450;18.124;2024-01-25T10:05:06;1.93;;;1.70;;
10721;SDS011;5412;59.450;18.124;2024-01-25T10:07:36;3.60;;;2.23;;
10721;SDS011;5412;59.450;18.124;2024-01-25T10:10:03;4.30;;;2.10;;
10721;SDS011;5412;59.450;18.124;2024-01-25T10:12:30;3.03;;;1.80;;
10721;SDS011;5412;59.450;18.124;2024-01-25T10:14:56;3.40;;;1.70;;
10721;SDS011;5412;59.450;18.124;2024-01-25T10:17:22;3.00;;;2.00;;
10721;SDS011;5412;59.450;18.124;2024-01-25T10:19:48;2.30;;;2.07;;
10721;SDS011;5412;59.450;18.124;2024-01-25T10:22:14;2.10;;;1.63;;
10721;SDS011;5412;59.450;18.124;2024-01-25T10:24:40;3.10;;;2.00;;
10721;SDS011;5412;59.450;18.124;2024-01-25T10:27:07;3.07;;;2.17;;
10721;SDS011;5412;59.450;18.124;2024-01-25T10:29:36;2.97;;;2.20;;
10721;SDS011;5412;59.450;18.124;2024-01-25T10:32:02;2.47;;;1.80;;
10721;SDS011;5412;59.450;18.124;2024-01-25T10:34:29;3.17;;;2.10;;
10721;SDS011;5412;59.450;18.124;2024-01-25T10:36:55;2.50;;;2.30;;
10721;SDS011;5412;59.450;18.124;2024-01-25T10:39:22;2.40;;;2.20;;
10721;SDS011;5412;59.450;18.124;2024-01-25T10:41:49;2.60;;;1.90;;
10721;SDS011;5412;59.450;18.124;2024-01-25T10:44:18;5.17;;;2.37;;
10721;SDS011;5412;59.450;18.124;2024-01-25T10:46:47;3.70;;;1.97;;
10721;SDS011;5412;59.450;18.124;2024-01-25T10:49:13;4.63;;;2.00;;
10721;SDS011;5412;59.450;18.124;2024-01-25T10:51:40;4.13;;;2.23;;
10721;SDS011;5412;59.450;18.124;2024-01-25T10:54:07;2.53;;;2.30;;
10721;SDS011;5412;59.450;18.124;2024-01-25T10:56:37;7.43;;;2.30;;
10721;SDS011;5412;59.450;18.124;2024-01-25T10:59:06;3.63;;;2.40;;
10721;SDS011;5412;59.450;18.124;2024-01-25T11:01:33;3.27;;;2.13;;
10721;SDS011;5412;59.450;18.124;2024-01-25T11:04:02;2.60;;;2.37;;
10721;SDS011;5412;59.450;18.124;2024-01-25T11:06:36;2.43;;;2.20;;
10721;SDS011;5412;59.450;18.124;2024-01-25T11:09:05;3.10;;;2.37;;
10721;SDS011;5412;59.450;18.124;2024-01-25T11:11:31;9.47;;;3.17;;
10721;SDS011;5412;59.450;18.124;2024-01-25T11:13:58;4.17;;;2.50;;
10721;SDS011;5412;59.450;18.124;2024-01-25T11:16:31;4.90;;;2.20;;
10721;SDS011;5412;59.450;18.124;2024-01-25T11:18:59;2.20;;;2.00;;
10721;SDS011;5412;59.450;18.124;2024-01-25T11:24:03;2.07;;;1.80;;
10721;SDS011;5412;59.450;18.124;2024-01-25T11:26:29;3.50;;;2.20;;
10721;SDS011;5412;59.450;18.124;2024-01-25T11:28:57;3.97;;;2.03;;
10721;SDS011;5412;59.450;18.124;2024-01-25T11:31:25;2.87;;;2.03;;
10721;SDS011;5412;59.450;18.124;2024-01-25T11:34:00;2.90;;;2.20;;
10721;SDS011;5412;59.450;18.124;2024-01-25T11:36:26;3.40;;;2.13;;
10721;SDS011;5412;59.450;18.124;2024-01-25T11:38:53;3.70;;;2.40;;
10721;SDS011;5412;59.450;18.124;2024-01-25T11:41:19;2.23;;;2.00;;
10721;SDS011;5412;59.450;18.124;2024-01-25T11:43:45;2.90;;;2.30;;
10721;SDS011;5412;59.450;18.124;2024-01-25T11:46:13;2.60;;;1.93;;
10721;SDS011;5412;59.450;18.124;2024-01-25T11:48:40;2.70;;;1.90;;
10721;SDS011;5412;59.450;18.124;2024-01-25T11:51:06;2.83;;;1.90;;
10721;SDS011;5412;59.450;18.124;2024-01-25T11:53:35;2.33;;;1.90;;
10721;SDS011;5412;59.450;18.124;2024-01-25T11:56:00;3.50;;;1.70;;
10721;SDS011;5412;59.450;18.124;2024-01-25T11:58:27;1.83;;;1.70;;
10721;SDS011;5412;59.450;18.124;2024-01-25T12:00:53;2.60;;;1.80;;
10721;SDS011;5412;59.450;18.124;2024-01-25T12:03:19;4.10;;;2.23;;
10721;SDS011;5412;59.450;18.124;2024-01-25T12:05:46;2.10;;;1.73;;
10721;SDS011;5412;59.450;18.124;2024-01-25T12:08:12;1.97;;;1.50;;
10721;SDS011;5412;59.450;18.124;2024-01-25T12:10:39;4.23;;;1.60;;
10721;SDS011;5412;59.450;18.124;2024-01-25T12:13:07;1.57;;;1.47;;
10721;SDS011;5412;59.450;18.124;2024-01-25T12:15:35;2.63;;;1.63;;
10721;SDS011;5412;59.450;18.124;2024-01-25T12:18:01;1.60;;;1.50;;
10721;SDS011;5412;59.450;18.124;2024-01-25T12:20:27;2.97;;;1.30;;
10721;SDS011;5412;59.450;18.124;2024-01-25T12:22:54;1.70;;;1.20;;
10721;SDS011;5412;59.450;18.124;2024-01-25T12:25:19;1.87;;;1.50;;
10721;SDS011;5412;59.450;18.124;2024-01-25T12:27:47;1.77;;;1.47;;
10721;SDS011;5412;59.450;18.124;2024-01-25T12:30:14;1.37;;;1.20;;
10721;SDS011;5412;59.450;18.124;2024-01-25T12:32:40;1.30;;;1.20;;
10721;SDS011;5412;59.450;18.124;2024-01-25T12:35:06;1.33;;;1.23;;
10721;SDS011;5412;59.450;18.124;2024-01-25T12:37:33;1.27;;;1.10;;
10721;SDS011;5412;59.450;18.124;2024-01-25T12:39:59;2.57;;;1.07;;
10721;SDS011;5412;59.450;18.124;2024-01-25T12:42:25;2.23;;;1.00;;
10721;SDS011;5412;59.450;18.124;2024-01-25T12:44:52;0.77;;;0.77;;
10721;SDS011;5412;59.450;18.124;2024-01-25T12:47:23;0.53;;;0.53;;
10721;SDS011;5412;59.450;18.124;2024-01-25T12:49:49;0.60;;;0.60;;
10721;SDS011;5412;59.450;18.124;2024-01-25T12:52:15;0.70;;;0.70;;
10721;SDS011;5412;59.450;18.124;2024-01-25T12:54:41;0.60;;;0.60;;
10721;SDS011;5412;59.450;18.124;2024-01-25T12:57:07;1.03;;;0.80;;
10721;SDS011;5412;59.450;18.124;2024-01-25T12:59:33;0.80;;;0.60;;
10721;SDS011;5412;59.450;18.124;2024-01-25T13:02:00;2.43;;;0.73;;
10721;SDS011;5412;59.450;18.124;2024-01-25T13:04:26;0.60;;;0.60;;
10721;SDS011;5412;59.450;18.124;2024-01-25T13:06:52;0.50;;;0.50;;
10721;SDS011;5412;59.450;18.124;2024-01-25T13:09:22;0.40;;;0.40;;
10721;SDS011;5412;59.450;18.124;2024-01-25T13:11:48;0.57;;;0.57;;
10721;SDS011;5412;59.450;18.124;2024-01-25T13:14:14;1.03;;;0.60;;
10721;SDS011;5412;59.450;18.124;2024-01-25T13:16:41;0.70;;;0.70;;
10721;SDS011;5412;59.450;18.124;2024-01-25T13:19:07;1.23;;;0.53;;
10721;SDS011;5412;59.450;18.124;2024-01-25T13:21:33;0.50;;;0.50;;
10721;SDS011;5412;59.450;18.124;2024-01-25T13:23:59;0.60;;;0.60;;
10721;SDS011;5412;59.450;18.124;2024-01-25T13:26:28;0.70;;;0.70;;
10721;SDS011;5412;59.450;18.124;2024-01-25T13:28:54;0.97;;;0.77;;
10721;SDS011;5412;59.450;18.124;2024-01-25T13:31:25;0.97;;;0.87;;
10721;SDS011;5412;59.450;18.124;2024-01-25T13:33:57;0.60;;;0.60;;
10721;SDS011;5412;59.450;18.124;2024-01-25T13:36:23;0.73;;;0.60;;
10721;SDS011;5412;59.450;18.124;2024-01-25T13:38:51;0.57;;;0.57;;
10721;SDS011;5412;59.450;18.124;2024-01-25T13:41:17;0.80;;;0.80;;
10721;SDS011;5412;59.450;18.124;2024-01-25T13:43:43;0.87;;;0.50;;
10721;SDS011;5412;59.450;18.124;2024-01-25T13:46:08;0.80;;;0.67;;
10721;SDS011;5412;59.450;18.124;2024-01-25T13:48:34;0.60;;;0.60;;
10721;SDS011;5412;59.450;18.124;2024-01-25T13:51:00;0.57;;;0.57;;
10721;SDS011;5412;59.450;18.124;2024-01-25T13:53:25;0.60;;;0.50;;
10721;SDS011;5412;59.450;18.124;2024-01-25T13:55:51;0.50;;;0.50;;
10721;SDS011;5412;59.450;18.124;2024-01-25T13:58:17;0.40;;;0.40;;
10721;SDS011;5412;59.450;18.124;2024-01-25T14:00:49;0.50;;;0.50;;
10721;SDS011;5412;59.450;18.124;2024-01-25T14:03:15;0.73;;;0.60;;
10721;SDS011;5412;59.450;18.124;2024-01-25T14:05:42;0.40;;;0.40;;
10721;SDS011;5412;59.450;18.124;2024-01-25T14:08:07;0.93;;;0.50;;
10721;SDS011;5412;59.450;18.124;2024-01-25T14:10:33;0.57;;;0.53;;
10721;SDS011;5412;59.450;18.124;2024-01-25T14:12:59;1.23;;;0.77;;
10721;SDS011;5412;59.450;18.124;2024-01-25T14:15:25;0.60;;;0.60;;
10721;SDS011;5412;59.450;18.124;2024-01-25T14:17:51;0.97;;;0.50;;
10721;SDS011;5412;59.450;18.124;2024-01-25T14:20:17;1.67;;;0.87;;
10721;SDS011;5412;59.450;18.124;2024-01-25T14:22:43;0.60;;;0.60;;
10721;SDS011;5412;59.450;18.124;2024-01-25T14:25:09;0.50;;;0.50;;
10721;SDS011;5412;59.450;18.124;2024-01-25T14:27:35;0.50;;;0.50;;
10721;SDS011;5412;59.450;18.124;2024-01-25T14:30:01;0.50;;;0.50;;
10721;SDS011;5412;59.450;18.124;2024-01-25T14:32:29;0.50;;;0.50;;
10721;SDS011;5412;59.450;18.124;2024-01-25T14:34:54;0.60;;;0.60;;
10721;SDS011;5412;59.450;18.124;2024-01-25T14:37:20;1.13;;;0.50;;
10721;SDS011;5412;59.450;18.124;2024-01-25T14:39:46;0.60;;;0.50;;
10721;SDS011;5412;59.450;18.124;2024-01-25T14:42:12;1.17;;;0.73;;
10721;SDS011;5412;59.450;18.124;2024-01-25T14:44:38;0.60;;;0.60;;